Time;durP1;ratioP1;P1;durP2;ratioP2;P2;SDS_P1;SDS_P2;PMS_P1;PMS_P2;Temp;Humidity;BMP_temperature;BMP_pressure;BME280_temperature;BME280_humidity;BME280_pressure;Samples;Min_cycle;Max_cycle;Signal;HPM_P1;HPM_P2
2023/11/16 00:02:08;;;;;;;8.97;5.40;;;5.10;99.90;;;;;;5065229;28;20210;-72
2023/11/16 00:04:55;;;;;;;10.83;6.07;;;5.10;99.90;;;;;;5060365;28;20216;-72
2023/11/16 00:07:45;;;;;;;8.67;5.47;;;5.10;99.90;;;;;;5061929;28;20843;-72
2023/11/16 00:10:33;;;;;;;11.67;5.90;;;5.10;99.90;;;;;;5060397;28;20235;-72
2023/11/16 00:13:20;;;;;;;12.70;6.50;;;5.10;99.90;;;;;;5060506;28;20201;-72
2023/11/16 00:16:11;;;;;;;14.10;7.13;;;5.10;99.90;;;;;;5066279;28;20201;-72
2023/11/16 00:19:00;;;;;;;11.00;6.53;;;5.20;99.90;;;;;;5063633;28;20664;-72
2023/11/16 00:21:47;;;;;;;14.97;7.17;;;5.20;99.90;;;;;;5064418;28;20233;-72
2023/11/16 00:24:34;;;;;;;13.60;7.50;;;5.10;99.90;;;;;;5059943;28;20234;-72
2023/11/16 00:27:25;;;;;;;13.53;7.00;;;5.10;99.90;;;;;;5059373;28;20303;-72
2023/11/16 00:30:14;;;;;;;14.23;8.03;;;5.10;99.90;;;;;;5060356;28;20209;-72
2023/11/16 00:33:02;;;;;;;12.93;6.60;;;5.10;99.90;;;;;;5060661;28;20204;-72
2023/11/16 00:35:50;;;;;;;13.70;7.03;;;5.20;99.90;;;;;;5063734;28;20224;-72
2023/11/16 00:38:38;;;;;;;14.90;8.07;;;5.10;99.90;;;;;;5052780;28;20250;-72
2023/11/16 00:41:25;;;;;;;18.67;8.80;;;5.10;99.90;;;;;;5064933;28;20205;-72
2023/11/16 00:44:14;;;;;;;19.43;9.73;;;5.00;99.90;;;;;;5061948;28;20582;-72
2023/11/16 00:47:02;;;;;;;15.17;9.30;;;4.90;99.90;;;;;;5064105;28;20209;-72
2023/11/16 00:49:51;;;;;;;14.53;9.03;;;4.90;99.90;;;;;;5061922;28;20205;-72
2023/11/16 00:52:38;;;;;;;17.63;9.43;;;4.90;99.90;;;;;;5061884;28;20515;-72
2023/11/16 00:55:26;;;;;;;16.83;9.97;;;5.00;99.90;;;;;;5061221;28;20224;-72
2023/11/16 00:58:14;;;;;;;22.43;10.93;;;4.90;99.90;;;;;;5061498;28;20279;-72
2023/11/16 01:01:02;;;;;;;23.67;11.13;;;5.00;99.90;;;;;;5053689;28;20228;-72
2023/11/16 01:03:49;;;;;;;19.30;10.93;;;4.90;99.90;;;;;;5058169;28;20197;-72
2023/11/16 01:06:39;;;;;;;23.50;12.50;;;4.90;99.90;;;;;;5059468;28;20276;-72
2023/11/16 01:09:28;;;;;;;22.43;11.53;;;5.00;99.90;;;;;;5059495;28;20241;-72
2023/11/16 01:12:15;;;;;;;24.30;12.07;;;5.00;99.90;;;;;;5057080;28;20652;-72
2023/11/16 01:15:05;;;;;;;25.17;12.50;;;5.10;99.90;;;;;;5056725;28;20197;-72
2023/11/16 01:17:53;;;;;;;24.97;13.30;;;5.00;99.90;;;;;;5062350;28;20201;-72
2023/11/16 01:20:40;;;;;;;22.73;12.37;;;5.00;99.90;;;;;;5058348;28;20217;-72
2023/11/16 01:23:29;;;;;;;23.00;12.77;;;5.00;99.90;;;;;;5062038;28;20682;-72
2023/11/16 01:26:17;;;;;;;23.50;13.70;;;5.10;99.90;;;;;;5060741;28;20228;-72
2023/11/16 01:29:08;;;;;;;21.97;10.43;;;5.00;99.90;;;;;;5058744;28;20190;-72
2023/11/16 01:31:56;;;;;;;25.93;13.90;;;5.00;99.90;;;;;;5062717;28;20208;-72
2023/11/16 01:34:44;;;;;;;28.00;14.63;;;5.00;99.90;;;;;;5060445;28;20213;-73
2023/11/16 01:37:32;;;;;;;26.97;14.53;;;5.00;99.90;;;;;;5057618;28;20232;-72
2023/11/16 01:40:24;;;;;;;27.20;15.20;;;4.90;99.90;;;;;;5063979;28;20198;-72
2023/11/16 01:43:12;;;;;;;26.23;14.40;;;4.90;99.90;;;;;;5059117;28;20670;-72
2023/11/16 01:45:59;;;;;;;29.10;14.50;;;4.90;99.90;;;;;;5058768;28;20360;-72
2023/11/16 01:48:49;;;;;;;25.40;13.80;;;4.90;99.90;;;;;;5061486;28;20236;-72
2023/11/16 01:51:37;;;;;;;30.07;14.90;;;4.90;99.90;;;;;;5060351;28;20205;-72
2023/11/16 01:54:25;;;;;;;31.17;15.57;;;4.90;99.90;;;;;;5055932;28;20211;-72
2023/11/16 01:57:13;;;;;;;27.83;14.87;;;4.90;99.90;;;;;;5060556;28;20695;-72
2023/11/16 02:00:01;;;;;;;29.10;15.37;;;4.90;99.90;;;;;;5059018;28;20228;-73
2023/11/16 02:02:49;;;;;;;27.07;14.60;;;4.90;99.90;;;;;;5061307;28;20549;-72
2023/11/16 02:05:37;;;;;;;29.57;15.10;;;5.00;99.90;;;;;;5059463;28;20243;-72
2023/11/16 02:08:24;;;;;;;24.80;13.73;;;5.00;99.90;;;;;;5059666;28;20217;-72
2023/11/16 02:11:11;;;;;;;25.17;13.77;;;4.90;99.90;;;;;;5046050;28;20237;-72
2023/11/16 02:14:00;;;;;;;24.90;13.27;;;5.00;99.90;;;;;;5048637;28;20203;-72
2023/11/16 02:16:49;;;;;;;28.90;13.87;;;4.90;99.90;;;;;;5045136;28;20201;-72
2023/11/16 02:19:36;;;;;;;24.63;14.17;;;5.00;99.90;;;;;;5048921;28;20603;-72
2023/11/16 02:22:24;;;;;;;26.20;14.97;;;5.00;99.90;;;;;;5044397;28;20219;-72
2023/11/16 02:25:12;;;;;;;30.73;15.13;;;5.00;99.90;;;;;;5041458;28;20193;-73
2023/11/16 02:28:00;;;;;;;27.13;14.60;;;4.90;99.90;;;;;;5046034;28;20571;-72
2023/11/16 02:30:47;;;;;;;29.00;15.10;;;4.90;99.90;;;;;;5045069;28;20578;-72
2023/11/16 02:33:34;;;;;;;28.03;15.63;;;4.90;99.90;;;;;;5044412;28;20659;-72
2023/11/16 02:36:21;;;;;;;30.70;14.17;;;4.90;99.90;;;;;;5041297;28;20229;-72
2023/11/16 02:39:13;;;;;;;29.13;15.40;;;5.00;99.90;;;;;;5043320;28;20700;-72
2023/11/16 02:42:02;;;;;;;27.53;15.43;;;4.90;99.90;;;;;;5047394;28;20229;-72
2023/11/16 02:44:49;;;;;;;32.83;15.20;;;4.90;99.90;;;;;;5044276;28;20210;-72
2023/11/16 02:47:36;;;;;;;29.03;16.60;;;4.90;99.90;;;;;;5046224;28;20302;-72
2023/11/16 02:50:26;;;;;;;27.33;16.13;;;4.90;99.90;;;;;;5047186;28;20572;-72
2023/11/16 02:53:13;;;;;;;27.47;16.07;;;4.90;99.90;;;;;;5044618;28;20198;-72
2023/11/16 02:56:03;;;;;;;28.87;15.90;;;4.90;99.90;;;;;;5041049;28;20578;-73
2023/11/16 02:58:51;;;;;;;31.10;16.17;;;4.90;99.90;;;;;;5044332;28;20271;-71
2023/11/16 03:01:38;;;;;;;31.77;16.20;;;4.90;99.90;;;;;;5048850;28;20219;-71
2023/11/16 03:04:27;;;;;;;30.30;15.30;;;4.90;99.90;;;;;;5042660;28;20261;-72
2023/11/16 03:07:14;;;;;;;33.70;15.87;;;5.00;99.90;;;;;;5044308;28;20683;-72
2023/11/16 03:10:03;;;;;;;29.17;16.10;;;5.00;99.90;;;;;;5058960;28;20703;-72
2023/11/16 03:12:50;;;;;;;31.43;16.63;;;5.00;99.90;;;;;;5056275;28;20201;-72
2023/11/16 03:15:39;;;;;;;35.77;17.13;;;4.90;99.90;;;;;;5055756;28;20224;-72
2023/11/16 03:18:26;;;;;;;29.47;16.37;;;4.80;99.90;;;;;;5064110;28;20663;-72
2023/11/16 03:21:14;;;;;;;38.50;16.80;;;4.80;99.90;;;;;;5062668;28;20335;-73
2023/11/16 03:24:01;;;;;;;31.47;16.00;;;4.80;99.90;;;;;;5066116;28;20211;-73
2023/11/16 03:26:48;;;;;;;29.87;16.23;;;4.80;99.90;;;;;;5057665;28;20221;-72
2023/11/16 03:29:37;;;;;;;25.87;12.90;;;4.80;99.90;;;;;;5058975;28;20671;-72
2023/11/16 03:32:26;;;;;;;34.33;15.93;;;4.90;99.90;;;;;;5062626;28;20208;-72
2023/11/16 03:35:15;;;;;;;32.67;15.67;;;4.70;99.90;;;;;;5058187;28;20189;-72
2023/11/16 03:38:02;;;;;;;30.67;14.97;;;4.70;99.90;;;;;;5063648;28;20675;-72
2023/11/16 03:40:50;;;;;;;32.90;15.00;;;4.60;99.90;;;;;;5059020;28;20200;-72
2023/11/16 03:43:37;;;;;;;28.23;14.57;;;4.70;99.90;;;;;;5061348;28;20291;-72
2023/11/16 03:46:25;;;;;;;30.73;14.30;;;4.60;99.90;;;;;;5059614;28;20226;-72
2023/11/16 03:49:14;;;;;;;13.73;6.60;;;4.60;99.90;;;;;;5060732;28;20204;-72
2023/11/16 03:52:01;;;;;;;23.63;12.90;;;4.50;99.90;;;;;;5058837;28;20201;-72
2023/11/16 03:54:48;;;;;;;29.87;13.77;;;4.50;99.90;;;;;;5060282;28;20638;-72
2023/11/16 03:57:36;;;;;;;27.87;13.40;;;4.60;99.90;;;;;;5059030;28;20207;-72
2023/11/16 04:00:25;;;;;;;32.83;14.90;;;4.50;99.90;;;;;;5056938;28;20562;-72
2023/11/16 04:03:12;;;;;;;30.90;13.83;;;4.40;99.90;;;;;;5054286;28;20205;-72
2023/11/16 04:06:01;;;;;;;27.80;14.97;;;4.40;99.90;;;;;;5061549;28;20204;-72
2023/11/16 04:08:48;;;;;;;25.93;11.53;;;4.40;99.90;;;;;;5063027;28;20680;-72
2023/11/16 04:11:40;;;;;;;27.57;14.90;;;4.40;99.90;;;;;;5058081;28;20200;-72
2023/11/16 04:14:27;;;;;;;35.03;17.97;;;4.50;99.90;;;;;;5061484;28;20213;-72
2023/11/16 04:17:14;;;;;;;37.03;17.03;;;4.40;99.90;;;;;;5057948;28;20201;-72
2023/11/16 04:20:02;;;;;;;32.10;17.10;;;4.40;99.90;;;;;;5061964;28;20204;-72
2023/11/16 04:22:51;;;;;;;28.83;16.90;;;4.30;99.90;;;;;;5060618;28;20206;-73
2023/11/16 04:25:40;;;;;;;33.27;16.40;;;4.30;99.90;;;;;;5060467;28;20236;-72
2023/11/16 04:28:29;;;;;;;27.43;14.90;;;4.40;99.90;;;;;;5055302;28;20216;-72
2023/11/16 04:31:17;;;;;;;34.60;16.27;;;4.40;99.90;;;;;;5062035;28;20283;-72
2023/11/16 04:34:04;;;;;;;31.63;16.07;;;4.50;99.90;;;;;;5063865;28;20193;-73
2023/11/16 04:36:53;;;;;;;30.63;16.23;;;4.40;99.90;;;;;;5059886;28;20239;-73
2023/11/16 04:39:41;;;;;;;29.70;16.27;;;4.40;99.90;;;;;;5060857;28;20210;-73
2023/11/16 04:42:29;;;;;;;32.87;16.30;;;4.30;99.90;;;;;;5059847;28;20211;-72
2023/11/16 04:45:18;;;;;;;33.57;16.40;;;4.40;99.90;;;;;;5057457;28;20730;-73
2023/11/16 04:48:06;;;;;;;31.67;15.90;;;4.30;99.90;;;;;;5062857;28;20757;-72
2023/11/16 04:50:53;;;;;;;31.33;15.93;;;4.30;99.90;;;;;;5061040;28;20675;-73
2023/11/16 04:53:40;;;;;;;35.13;16.60;;;4.30;99.90;;;;;;5058482;28;20205;-72
2023/11/16 04:56:29;;;;;;;34.43;15.90;;;4.30;99.90;;;;;;5058494;28;20275;-72
2023/11/16 04:59:16;;;;;;;28.97;15.90;;;4.40;99.90;;;;;;5063191;28;20204;-72
2023/11/16 05:02:03;;;;;;;27.00;15.87;;;4.40;99.90;;;;;;5059357;28;20308;-72
2023/11/16 05:04:51;;;;;;;32.57;16.70;;;4.40;99.90;;;;;;5058400;28;20684;-72
2023/11/16 05:07:38;;;;;;;32.70;16.77;;;4.20;99.90;;;;;;5058220;28;20227;-72
2023/11/16 05:10:25;;;;;;;35.50;17.60;;;4.20;99.90;;;;;;5061877;28;20251;-73
2023/11/16 05:13:14;;;;;;;31.27;16.93;;;4.30;99.90;;;;;;5059466;28;20200;-72
2023/11/16 05:16:04;;;;;;;35.27;16.13;;;4.30;99.90;;;;;;5062002;28;20288;-73
2023/11/16 05:18:51;;;;;;;32.40;16.70;;;4.30;99.90;;;;;;5061917;28;20231;-73
2023/11/16 05:21:39;;;;;;;39.80;17.20;;;4.30;99.90;;;;;;5061898;28;20255;-73
2023/11/16 05:24:26;;;;;;;31.07;15.97;;;4.30;99.90;;;;;;5062133;28;20243;-73
2023/11/16 05:27:14;;;;;;;40.60;19.80;;;4.30;99.90;;;;;;5058887;28;20247;-72
2023/11/16 05:30:03;;;;;;;40.27;21.37;;;4.40;99.90;;;;;;5063919;28;20301;-72
2023/11/16 05:32:50;;;;;;;43.50;21.30;;;4.40;99.90;;;;;;5064562;28;20201;-72
2023/11/16 05:35:38;;;;;;;48.37;23.27;;;4.40;99.90;;;;;;5063066;28;20197;-72
2023/11/16 05:38:26;;;;;;;52.67;24.97;;;4.40;99.90;;;;;;5065542;28;20204;-72
2023/11/16 05:41:14;;;;;;;53.97;25.13;;;4.40;99.90;;;;;;5061123;28;20682;-72
2023/11/16 05:44:01;;;;;;;57.90;28.50;;;4.40;99.90;;;;;;5066261;28;20291;-72
2023/11/16 05:46:50;;;;;;;62.87;27.50;;;4.30;99.90;;;;;;5064644;28;21835;-73
2023/11/16 05:49:37;;;;;;;56.20;27.63;;;4.30;99.90;;;;;;5062124;28;20571;-72
2023/11/16 05:52:24;;;;;;;61.83;30.40;;;4.30;99.90;;;;;;5064731;28;20588;-73
2023/11/16 05:55:12;;;;;;;61.67;33.17;;;4.30;99.90;;;;;;5068113;28;20546;-73
2023/11/16 05:57:59;;;;;;;68.80;32.67;;;4.20;99.90;;;;;;5066266;28;20197;-73
2023/11/16 06:00:46;;;;;;;69.03;32.53;;;4.20;99.90;;;;;;5066525;28;20203;-72
2023/11/16 06:03:35;;;;;;;64.27;32.03;;;4.20;99.90;;;;;;5064584;28;20287;-72
2023/11/16 06:06:23;;;;;;;61.80;29.90;;;4.10;99.90;;;;;;5065669;28;20201;-72
2023/11/16 06:09:10;;;;;;;63.53;31.23;;;4.20;99.90;;;;;;5062613;28;20560;-73
2023/11/16 06:11:58;;;;;;;65.20;29.93;;;4.20;99.90;;;;;;5068104;28;20209;-71
2023/11/16 06:14:52;;;;;;;70.73;31.93;;;4.20;99.90;;;;;;5066458;28;20336;-72
2023/11/16 06:17:41;;;;;;;72.27;33.67;;;4.20;99.90;;;;;;5068142;28;20205;-72
2023/11/16 06:20:29;;;;;;;70.37;33.10;;;4.20;99.90;;;;;;5066565;28;20342;-73
2023/11/16 06:23:17;;;;;;;68.83;33.83;;;4.30;99.90;;;;;;5061879;28;20326;-73
2023/11/16 06:26:05;;;;;;;71.90;34.00;;;4.20;99.90;;;;;;5068549;28;20246;-73
2023/11/16 06:28:52;;;;;;;71.57;31.80;;;4.30;99.90;;;;;;5066332;28;20217;-72
2023/11/16 06:31:39;;;;;;;71.60;34.93;;;4.40;99.90;;;;;;5065619;28;20204;-73
2023/11/16 06:34:27;;;;;;;67.33;32.50;;;4.30;99.90;;;;;;5061664;28;20315;-72
2023/11/16 06:37:16;;;;;;;67.13;31.87;;;4.40;99.90;;;;;;5063027;28;20224;-73
2023/11/16 06:40:04;;;;;;;75.90;34.40;;;4.40;99.90;;;;;;5059038;28;20196;-73
2023/11/16 06:42:52;;;;;;;79.90;34.93;;;4.50;99.90;;;;;;5059962;28;20208;-73
2023/11/16 06:45:40;;;;;;;83.50;35.83;;;4.40;99.90;;;;;;5064113;28;20193;-72
2023/11/16 06:48:30;;;;;;;78.53;35.70;;;4.50;99.90;;;;;;5063563;28;20239;-73
2023/11/16 06:51:17;;;;;;;66.63;29.37;;;4.50;99.90;;;;;;5064999;28;20208;-73
2023/11/16 06:54:11;;;;;;;80.63;35.57;;;4.50;99.90;;;;;;5070700;28;20235;-73
2023/11/16 06:56:59;;;;;;;63.77;28.43;;;4.50;99.90;;;;;;5069551;28;20230;-73
2023/11/16 06:59:46;;;;;;;78.57;36.60;;;4.60;99.90;;;;;;5069229;28;20201;-73
2023/11/16 07:02:34;;;;;;;61.50;25.90;;;4.60;99.90;;;;;;5064990;28;20285;-73
2023/11/16 07:05:23;;;;;;;78.87;37.03;;;4.70;99.90;;;;;;5062555;28;20932;-73
2023/11/16 07:08:10;;;;;;;82.07;35.67;;;4.60;99.90;;;;;;5067399;28;20240;-73
2023/11/16 07:10:59;;;;;;;81.63;37.27;;;4.50;99.90;;;;;;5072050;28;20223;-72
2023/11/16 07:13:46;;;;;;;85.17;34.83;;;4.60;99.90;;;;;;5064410;28;20223;-72
2023/11/16 07:16:33;;;;;;;85.53;37.53;;;4.70;99.90;;;;;;5069839;28;20259;-73
2023/11/16 07:19:21;;;;;;;84.70;37.47;;;4.70;99.90;;;;;;5062053;28;20243;-72
2023/11/16 07:22:08;;;;;;;94.87;37.07;;;4.70;99.90;;;;;;5062147;28;20208;-73
2023/11/16 07:24:55;;;;;;;81.60;36.20;;;4.70;99.90;;;;;;5063482;28;20279;-73
2023/11/16 07:27:44;;;;;;;81.87;35.13;;;4.80;99.90;;;;;;5064379;28;20204;-73
2023/11/16 07:30:33;;;;;;;82.20;36.03;;;4.90;99.90;;;;;;5063926;28;20215;-73
2023/11/16 07:33:23;;;;;;;73.23;33.33;;;4.80;99.90;;;;;;5063290;28;20200;-73
2023/11/16 07:36:11;;;;;;;70.03;31.30;;;4.80;99.90;;;;;;5067084;28;20220;-73
2023/11/16 07:38:58;;;;;;;76.10;33.47;;;4.90;99.90;;;;;;5067004;28;20193;-73
2023/11/16 07:41:46;;;;;;;65.87;30.57;;;4.90;99.90;;;;;;5067918;28;20200;-73
2023/11/16 07:44:35;;;;;;;67.57;28.67;;;4.90;99.90;;;;;;5064830;28;20208;-73
2023/11/16 07:47:22;;;;;;;57.27;23.90;;;4.90;99.90;;;;;;5066370;28;20212;-73
2023/11/16 07:50:12;;;;;;;59.57;27.50;;;4.90;99.90;;;;;;5064311;28;20229;-72
2023/11/16 07:53:00;;;;;;;51.37;21.53;;;5.00;99.90;;;;;;5059553;28;20212;-73
2023/11/16 07:55:50;;;;;;;44.17;20.30;;;4.90;99.90;;;;;;5064973;28;20358;-72
2023/11/16 07:58:39;;;;;;;38.63;18.53;;;5.00;99.90;;;;;;5065879;28;20292;-72
2023/11/16 08:01:39;;;;;;;50.40;24.50;;;5.10;99.90;;;;;;5060900;28;20595;-72
2023/11/16 08:04:25;;;;;;;32.90;15.07;;;5.00;99.90;;;;;;5058453;28;20204;-72
2023/11/16 08:07:13;;;;;;;26.53;10.63;;;5.00;99.90;;;;;;5062974;28;20287;-72
2023/11/16 08:10:00;;;;;;;17.13;8.47;;;5.00;99.90;;;;;;5056819;28;20706;-73
2023/11/16 08:12:47;;;;;;;46.53;23.37;;;4.90;99.90;;;;;;5045789;28;20452;-73
2023/11/16 08:15:34;;;;;;;41.27;20.30;;;5.00;99.90;;;;;;5049196;28;20198;-73
2023/11/16 08:18:24;;;;;;;38.70;20.00;;;5.00;99.90;;;;;;5040422;28;20279;-73
2023/11/16 08:21:12;;;;;;;40.00;20.07;;;5.10;99.90;;;;;;5042437;28;20205;-73
2023/11/16 08:23:59;;;;;;;42.93;20.33;;;5.10;99.90;;;;;;5044112;28;20208;-73
2023/11/16 08:26:47;;;;;;;39.87;19.00;;;5.10;99.90;;;;;;5044081;28;20267;-73
2023/11/16 08:29:34;;;;;;;36.63;18.10;;;5.10;99.90;;;;;;5043765;28;20217;-73
2023/11/16 08:32:22;;;;;;;39.77;19.50;;;5.20;99.90;;;;;;5042841;28;20690;-73
2023/11/16 08:35:13;;;;;;;37.93;19.57;;;5.30;99.90;;;;;;5041681;28;20204;-73
2023/11/16 08:38:00;;;;;;;38.80;16.50;;;5.10;99.90;;;;;;5029948;28;20202;-73
2023/11/16 08:40:47;;;;;;;34.97;18.67;;;5.30;99.90;;;;;;5038239;28;20202;-73
2023/11/16 08:43:35;;;;;;;42.63;18.23;;;5.30;99.90;;;;;;5036695;28;20586;-73
2023/11/16 08:46:24;;;;;;;34.47;16.97;;;5.40;99.90;;;;;;5043691;28;20237;-73
2023/11/16 08:49:11;;;;;;;32.33;14.43;;;5.40;99.90;;;;;;5044205;28;20213;-73
2023/11/16 08:52:00;;;;;;;42.40;17.53;;;5.40;99.90;;;;;;5045900;28;20209;-73
2023/11/16 08:54:48;;;;;;;39.50;17.80;;;5.50;99.90;;;;;;5043065;28;20197;-73
2023/11/16 08:57:35;;;;;;;33.13;16.63;;;5.60;99.90;;;;;;5035246;28;20296;-73
2023/11/16 09:00:33;;;;;;;30.40;15.07;;;5.60;99.90;;;;;;5039545;28;20228;-73
2023/11/16 09:03:21;;;;;;;33.27;18.53;;;5.70;99.90;;;;;;5041441;28;20201;-73
2023/11/16 09:06:15;;;;;;;33.53;16.20;;;5.70;99.90;;;;;;5047961;28;20203;-73
2023/11/16 09:09:09;;;;;;;33.50;16.23;;;5.80;99.90;;;;;;5045464;28;20604;-73
2023/11/16 09:11:58;;;;;;;40.57;17.93;;;5.70;99.90;;;;;;5068436;28;20218;-73
2023/11/16 09:14:46;;;;;;;35.17;18.53;;;5.80;99.90;;;;;;5065736;28;20204;-73
2023/11/16 09:17:33;;;;;;;31.63;14.57;;;5.90;99.90;;;;;;5066162;28;20194;-73
2023/11/16 09:20:21;;;;;;;32.93;17.10;;;5.90;99.90;;;;;;5064175;28;20194;-73
2023/11/16 09:23:10;;;;;;;28.67;14.70;;;6.00;99.90;;;;;;5069374;28;20200;-73
2023/11/16 09:25:59;;;;;;;17.73;8.87;;;6.00;99.90;;;;;;5065685;28;20247;-72
2023/11/16 09:28:47;;;;;;;31.33;15.77;;;6.00;99.90;;;;;;5069462;28;20252;-73
2023/11/16 09:31:34;;;;;;;30.30;16.40;;;6.00;99.90;;;;;;5070521;28;20576;-73
2023/11/16 09:34:21;;;;;;;31.20;14.97;;;6.00;99.90;;;;;;5067080;28;20213;-73
2023/11/16 09:37:09;;;;;;;30.67;16.23;;;6.10;99.90;;;;;;5062855;28;20233;-73
2023/11/16 09:39:56;;;;;;;26.67;14.90;;;6.10;99.90;;;;;;5065784;28;20215;-73
2023/11/16 09:42:48;;;;;;;33.63;16.37;;;6.10;99.90;;;;;;5068407;28;20687;-73
2023/11/16 09:45:38;;;;;;;26.97;15.20;;;6.20;99.90;;;;;;5067062;28;20206;-73
2023/11/16 09:48:25;;;;;;;30.20;14.60;;;6.20;99.90;;;;;;5067747;28;20207;-73
2023/11/16 09:51:12;;;;;;;25.40;12.40;;;6.20;99.90;;;;;;5067045;28;20695;-72
2023/11/16 09:54:00;;;;;;;31.70;15.97;;;6.20;99.90;;;;;;5066020;28;20197;-73
2023/11/16 09:56:47;;;;;;;34.83;16.07;;;6.30;99.90;;;;;;5068554;28;20228;-73
2023/11/16 09:59:42;;;;;;;31.33;15.60;;;6.30;99.90;;;;;;5064788;28;20202;-73
2023/11/16 10:02:32;;;;;;;33.30;16.87;;;6.50;99.90;;;;;;5067963;28;20902;-73
2023/11/16 10:05:22;;;;;;;31.60;16.87;;;6.40;99.90;;;;;;5066372;28;20214;-73
2023/11/16 10:08:14;;;;;;;31.17;17.87;;;6.60;99.90;;;;;;5068488;28;20255;-73
2023/11/16 10:11:05;;;;;;;35.53;18.70;;;6.60;99.90;;;;;;5061817;28;20828;-73
2023/11/16 10:13:56;;;;;;;30.17;14.33;;;6.60;99.90;;;;;;5061167;28;20341;-72
2023/11/16 10:16:47;;;;;;;35.37;18.23;;;6.60;99.90;;;;;;5059973;28;20196;-73
2023/11/16 10:19:34;;;;;;;34.20;18.17;;;6.60;99.90;;;;;;5065730;28;20683;-73
2023/11/16 10:22:21;;;;;;;37.53;18.77;;;6.60;99.90;;;;;;5064296;28;20199;-74
2023/11/16 10:25:10;;;;;;;36.67;18.10;;;6.60;99.90;;;;;;5068084;28;20765;-74
2023/11/16 10:27:58;;;;;;;29.03;17.13;;;6.80;99.90;;;;;;5063666;28;20732;-73
2023/11/16 10:30:46;;;;;;;35.33;18.47;;;6.90;99.90;;;;;;5061758;28;20255;-73
2023/11/16 10:33:35;;;;;;;36.20;18.70;;;6.80;99.90;;;;;;5056655;28;20208;-73
2023/11/16 10:36:23;;;;;;;38.20;18.60;;;7.00;99.90;;;;;;5059959;28;20251;-73
2023/11/16 10:39:12;;;;;;;37.53;19.33;;;7.00;99.90;;;;;;5060265;28;20256;-73
2023/11/16 10:42:00;;;;;;;34.70;17.37;;;7.00;99.90;;;;;;5065738;28;20203;-73
2023/11/16 10:44:48;;;;;;;41.70;18.83;;;7.00;99.90;;;;;;5072811;28;20845;-73
2023/11/16 10:47:37;;;;;;;31.23;12.57;;;7.20;99.90;;;;;;5060265;28;20207;-73
2023/11/16 10:50:27;;;;;;;26.80;15.87;;;7.20;99.90;;;;;;5059581;28;20218;-73
2023/11/16 10:53:18;;;;;;;25.53;13.27;;;7.10;99.90;;;;;;5064964;28;20690;-73
2023/11/16 10:56:07;;;;;;;29.97;15.07;;;7.30;99.90;;;;;;5063884;28;20327;-73
2023/11/16 10:58:55;;;;;;;19.67;10.13;;;7.50;99.90;;;;;;5061958;28;20207;-73
2023/11/16 11:01:42;;;;;;;35.37;17.07;;;7.70;99.90;;;;;;5062906;28;20235;-74
2023/11/16 11:04:30;;;;;;;28.23;14.40;;;7.90;99.90;;;;;;5059725;28;20211;-73
2023/11/16 11:07:19;;;;;;;31.00;14.53;;;7.70;99.90;;;;;;5065140;28;20215;-73
2023/11/16 11:10:09;;;;;;;29.00;14.33;;;7.80;99.90;;;;;;5058883;28;20722;-73
2023/11/16 11:13:03;;;;;;;27.83;15.30;;;7.80;99.90;;;;;;5069103;28;20287;-73
2023/11/16 11:15:50;;;;;;;24.67;12.23;;;7.80;99.90;;;;;;5064040;28;20211;-73
2023/11/16 11:18:45;;;;;;;32.47;16.20;;;8.00;99.90;;;;;;5060040;28;20203;-73
2023/11/16 11:21:32;;;;;;;32.53;17.77;;;8.10;99.90;;;;;;5054371;28;20212;-74
2023/11/16 11:24:22;;;;;;;30.13;16.47;;;8.00;99.90;;;;;;5063784;28;20216;-73
2023/11/16 11:27:09;;;;;;;35.27;16.97;;;8.00;99.90;;;;;;5067615;28;20206;-73
2023/11/16 11:29:57;;;;;;;20.20;9.07;;;8.00;99.90;;;;;;5059339;28;20216;-72
2023/11/16 11:32:44;;;;;;;29.13;14.87;;;8.10;99.90;;;;;;5061647;28;20261;-73
2023/11/16 11:35:35;;;;;;;21.93;13.40;;;8.00;99.90;;;;;;5064953;28;20679;-73
2023/11/16 11:38:27;;;;;;;27.47;13.90;;;8.10;99.90;;;;;;5058578;28;20570;-73
2023/11/16 11:41:18;;;;;;;24.03;12.53;;;8.00;99.90;;;;;;5069839;28;20304;-73
2023/11/16 11:44:05;;;;;;;22.67;10.00;;;8.00;99.90;;;;;;5069685;28;20311;-73
2023/11/16 11:46:53;;;;;;;21.57;11.27;;;8.00;99.90;;;;;;5068519;28;20232;-73
2023/11/16 11:49:41;;;;;;;21.33;11.07;;;7.90;99.90;;;;;;5061743;28;20243;-74
2023/11/16 11:52:29;;;;;;;23.37;10.93;;;8.00;99.90;;;;;;5061934;28;20205;-73
2023/11/16 11:55:17;;;;;;;18.20;10.00;;;8.00;99.90;;;;;;5067697;28;20212;-73
2023/11/16 11:58:06;;;;;;;20.17;10.87;;;8.10;99.90;;;;;;5065367;28;20574;-74
2023/11/16 12:00:54;;;;;;;22.43;10.73;;;8.10;99.90;;;;;;5059105;28;20273;-74
2023/11/16 12:03:50;;;;;;;21.77;10.40;;;8.10;99.90;;;;;;5061784;28;20204;-74
2023/11/16 12:06:37;;;;;;;21.10;11.30;;;8.20;99.90;;;;;;5068973;28;20207;-74
2023/11/16 12:09:25;;;;;;;16.37;8.60;;;8.50;99.90;;;;;;5067146;28;20319;-73
2023/11/16 12:12:13;;;;;;;13.37;6.60;;;8.60;99.90;;;;;;5062756;28;20204;-73
2023/11/16 12:15:03;;;;;;;4.80;2.17;;;8.70;99.90;;;;;;5064721;28;20556;-73
2023/11/16 12:17:51;;;;;;;11.87;3.93;;;8.70;99.90;;;;;;5065866;28;20207;-73
2023/11/16 12:20:38;;;;;;;6.23;2.70;;;8.60;99.90;;;;;;5064330;28;20366;-72
2023/11/16 12:23:26;;;;;;;5.07;2.60;;;8.60;99.90;;;;;;5065101;28;20216;-73
2023/11/16 12:26:14;;;;;;;6.33;2.80;;;8.70;99.90;;;;;;5066842;28;20211;-72
2023/11/16 12:29:01;;;;;;;5.23;2.20;;;9.00;99.90;;;;;;5066814;28;20204;-72
2023/11/16 12:31:51;;;;;;;6.10;3.20;;;9.00;99.90;;;;;;5065196;28;20200;-73
2023/11/16 12:34:38;;;;;;;7.27;3.00;;;9.00;99.90;;;;;;5064416;28;20204;-73
2023/11/16 12:37:25;;;;;;;4.83;3.17;;;9.00;99.90;;;;;;5066037;28;20703;-73
2023/11/16 12:40:18;;;;;;;2.07;1.37;;;9.10;99.90;;;;;;5056550;28;20206;-72
2023/11/16 12:43:05;;;;;;;8.63;3.70;;;9.10;99.90;;;;;;5073008;28;20211;-73
2023/11/16 12:45:54;;;;;;;6.33;3.37;;;8.90;99.90;;;;;;5060243;28;20207;-73
2023/11/16 12:48:44;;;;;;;11.80;3.50;;;8.70;99.90;;;;;;5065414;28;20253;-73
2023/11/16 12:51:31;;;;;;;3.43;1.87;;;8.70;99.90;;;;;;5054389;28;20791;-72
2023/11/16 12:54:19;;;;;;;7.77;3.40;;;8.80;99.90;;;;;;5056456;28;20415;-73
2023/11/16 12:57:09;;;;;;;6.53;3.30;;;8.80;99.90;;;;;;5053011;28;20302;-73
2023/11/16 12:59:56;;;;;;;6.87;2.53;;;9.00;99.90;;;;;;5061405;28;20208;-73
2023/11/16 13:02:44;;;;;;;7.73;3.23;;;9.00;99.90;;;;;;5052281;28;20759;-73
2023/11/16 13:05:34;;;;;;;8.87;3.33;;;8.90;99.90;;;;;;5060243;28;20215;-73
2023/11/16 13:08:22;;;;;;;8.00;3.73;;;8.70;99.90;;;;;;5057147;28;20203;-73
2023/11/16 13:11:10;;;;;;;9.70;4.00;;;8.60;99.90;;;;;;5060589;28;20224;-73
2023/11/16 13:13:58;;;;;;;6.70;3.80;;;8.50;99.90;;;;;;5062263;28;20484;-73
2023/11/16 13:16:49;;;;;;;10.83;4.00;;;8.50;99.90;;;;;;5056182;28;20744;-73
2023/11/16 13:19:37;;;;;;;9.93;3.30;;;8.40;99.90;;;;;;5063275;28;20291;-73
2023/11/16 13:22:25;;;;;;;7.63;3.50;;;8.40;99.90;;;;;;5062253;28;20203;-73
2023/11/16 13:25:14;;;;;;;9.07;3.67;;;8.40;99.90;;;;;;5058222;28;20569;-73
2023/11/16 13:28:02;;;;;;;3.93;1.93;;;8.50;99.90;;;;;;5061488;28;20343;-72
2023/11/16 13:30:49;;;;;;;4.93;2.53;;;8.50;99.90;;;;;;5058857;28;20266;-73
2023/11/16 13:33:36;;;;;;;8.20;2.57;;;8.40;99.90;;;;;;5064203;28;20247;-72
2023/11/16 13:36:23;;;;;;;5.77;2.43;;;8.40;99.90;;;;;;5061697;28;20753;-72
2023/11/16 13:39:14;;;;;;;6.03;2.40;;;8.40;99.90;;;;;;5061142;28;20724;-72
2023/11/16 13:42:01;;;;;;;5.27;2.83;;;8.30;99.90;;;;;;5063946;28;20203;-72
2023/11/16 13:44:49;;;;;;;8.97;3.43;;;8.20;99.90;;;;;;5058225;28;20792;-72
2023/11/16 13:47:37;;;;;;;5.53;3.03;;;8.30;99.90;;;;;;5058901;28;20207;-73
2023/11/16 13:50:24;;;;;;;8.43;4.27;;;8.20;99.90;;;;;;5061212;28;20671;-72
2023/11/16 13:53:11;;;;;;;10.10;3.90;;;8.20;99.90;;;;;;5067010;28;20626;-73
2023/11/16 13:56:01;;;;;;;10.83;3.50;;;8.20;99.90;;;;;;5066421;28;20211;-73
2023/11/16 13:58:49;;;;;;;9.97;4.30;;;8.20;99.90;;;;;;5060147;28;20215;-72
2023/11/16 14:01:36;;;;;;;6.40;3.80;;;8.20;99.90;;;;;;5056056;28;20663;-72
2023/11/16 14:04:23;;;;;;;10.73;4.10;;;8.20;99.90;;;;;;5052747;28;20197;-72
2023/11/16 14:07:13;;;;;;;12.47;4.90;;;8.10;99.90;;;;;;5065016;28;20207;-72
2023/11/16 14:10:01;;;;;;;9.97;4.93;;;8.10;99.90;;;;;;5062691;28;20730;-73
2023/11/16 14:12:51;;;;;;;11.67;4.60;;;8.10;99.90;;;;;;5067022;28;20229;-73
2023/11/16 14:15:39;;;;;;;11.47;4.63;;;8.10;99.90;;;;;;5066981;28;20215;-73
2023/11/16 14:18:26;;;;;;;11.17;4.77;;;8.00;99.90;;;;;;5068002;28;20205;-73
2023/11/16 14:21:14;;;;;;;9.63;4.40;;;8.00;99.90;;;;;;5065944;28;20207;-72
2023/11/16 14:24:05;;;;;;;8.47;3.87;;;8.00;99.90;;;;;;5066633;28;20204;-73
2023/11/16 14:26:52;;;;;;;8.57;4.20;;;7.90;99.90;;;;;;5068470;28;20208;-73
2023/11/16 14:29:41;;;;;;;6.30;3.67;;;7.90;99.90;;;;;;5067592;28;20373;-73